sensor_id;sensor_type;location;lat;lon;timestamp;temperature;humidity
51567;DHT22;37657;53.182;5.638;2024-02-26T00:01:51;4.30;99.90
51567;DHT22;37657;53.182;5.638;2024-02-26T00:04:18;5.40;99.90
51567;DHT22;37657;53.182;5.638;2024-02-26T00:06:43;3.80;99.90
51567;DHT22;37657;53.182;5.638;2024-02-26T00:09:09;4.30;99.90
51567;DHT22;37657;53.182;5.638;2024-02-26T00:11:38;3.80;99.90
51567;DHT22;37657;53.182;5.638;2024-02-26T00:14:04;4.50;99.90
51567;DHT22;37657;53.182;5.638;2024-02-26T00:16:30;4.50;99.90
51567;DHT22;37657;53.182;5.638;2024-02-26T00:18:56;4.00;99.90
51567;DHT22;37657;53.182;5.638;2024-02-26T00:21:21;4.60;99.90
51567;DHT22;37657;53.182;5.638;2024-02-26T00:23:48;4.50;99.90
51567;DHT22;37657;53.182;5.638;2024-02-26T00:26:14;4.70;99.90
51567;DHT22;37657;53.182;5.638;2024-02-26T00:28:40;4.60;99.90
51567;DHT22;37657;53.182;5.638;2024-02-26T00:31:06;4.50;99.90
51567;DHT22;37657;53.182;5.638;2024-02-26T00:33:31;3.90;99.90
51567;DHT22;37657;53.182;5.638;2024-02-26T00:35:57;3.80;99.90
51567;DHT22;37657;53.182;5.638;2024-02-26T00:38:22;4.20;99.90
51567;DHT22;37657;53.182;5.638;2024-02-26T00:40:48;4.00;99.90
51567;DHT22;37657;53.182;5.638;2024-02-26T00:43:14;4.30;99.90
51567;DHT22;37657;53.182;5.638;2024-02-26T00:45:39;3.70;99.90
51567;DHT22;37657;53.182;5.638;2024-02-26T00:48:05;4.30;99.90
51567;DHT22;37657;53.182;5.638;2024-02-26T00:50:33;4.00;99.90
51567;DHT22;37657;53.182;5.638;2024-02-26T00:52:59;4.70;99.90
51567;DHT22;37657;53.182;5.638;2024-02-26T00:55:25;4.30;99.90
51567;DHT22;37657;53.182;5.638;2024-02-26T00:57:50;4.50;99.90
51567;DHT22;37657;53.182;5.638;2024-02-26T01:00:16;4.70;99.90
51567;DHT22;37657;53.182;5.638;2024-02-26T01:02:42;4.40;99.90
51567;DHT22;37657;53.182;5.638;2024-02-26T01:05:08;3.80;99.90
51567;DHT22;37657;53.182;5.638;2024-02-26T01:07:37;3.80;99.90
51567;DHT22;37657;53.182;5.638;2024-02-26T01:10:02;4.60;99.90
51567;DHT22;37657;53.182;5.638;2024-02-26T01:12:29;4.70;99.90
51567;DHT22;37657;53.182;5.638;2024-02-26T01:14:55;3.90;99.90
51567;DHT22;37657;53.182;5.638;2024-02-26T01:17:20;4.70;99.90
51567;DHT22;37657;53.182;5.638;2024-02-26T01:19:46;3.80;99.90
51567;DHT22;37657;53.182;5.638;2024-02-26T01:22:12;4.50;99.90
51567;DHT22;37657;53.182;5.638;2024-02-26T01:24:37;3.70;99.90
51567;DHT22;37657;53.182;5.638;2024-02-26T01:27:03;3.80;99.90
51567;DHT22;37657;53.182;5.638;2024-02-26T01:29:29;3.80;99.90
51567;DHT22;37657;53.182;5.638;2024-02-26T01:31:54;3.80;99.90
51567;DHT22;37657;53.182;5.638;2024-02-26T01:34:20;3.90;99.90
51567;DHT22;37657;53.182;5.638;2024-02-26T01:36:46;4.70;99.90
51567;DHT22;37657;53.182;5.638;2024-02-26T01:39:11;4.10;99.90
51567;DHT22;37657;53.182;5.638;2024-02-26T01:41:38;3.90;99.90
51567;DHT22;37657;53.182;5.638;2024-02-26T01:44:04;4.00;99.90
51567;DHT22;37657;53.182;5.638;2024-02-26T01:46:31;4.70;99.90
51567;DHT22;37657;53.182;5.638;2024-02-26T01:48:57;4.70;99.90
51567;DHT22;37657;53.182;5.638;2024-02-26T01:51:23;4.40;99.90
51567;DHT22;37657;53.182;5.638;2024-02-26T01:53:49;4.60;99.90
51567;DHT22;37657;53.182;5.638;2024-02-26T01:56:16;4.30;99.90
51567;DHT22;37657;53.182;5.638;2024-02-26T01:58:43;4.10;99.90
51567;DHT22;37657;53.182;5.638;2024-02-26T02:01:09;4.60;99.90
51567;DHT22;37657;53.182;5.638;2024-02-26T02:03:36;3.90;99.90
51567;DHT22;37657;53.182;5.638;2024-02-26T02:06:02;3.80;99.90
51567;DHT22;37657;53.182;5.638;2024-02-26T02:08:28;4.40;99.90
51567;DHT22;37657;53.182;5.638;2024-02-26T02:10:53;3.80;99.90
51567;DHT22;37657;53.182;5.638;2024-02-26T02:13:19;4.00;99.90
51567;DHT22;37657;53.182;5.638;2024-02-26T02:15:44;4.30;99.90
51567;DHT22;37657;53.182;5.638;2024-02-26T02:18:10;4.50;99.90
51567;DHT22;37657;53.182;5.638;2024-02-26T02:20:36;4.30;99.90
51567;DHT22;37657;53.182;5.638;2024-02-26T02:23:02;4.30;99.90
51567;DHT22;37657;53.182;5.638;2024-02-26T02:25:28;4.00;99.90
51567;DHT22;37657;53.182;5.638;2024-02-26T02:27:55;4.60;99.90
51567;DHT22;37657;53.182;5.638;2024-02-26T02:30:21;4.00;99.90
51567;DHT22;37657;53.182;5.638;2024-02-26T02:32:49;4.80;99.90
51567;DHT22;37657;53.182;5.638;2024-02-26T02:35:14;3.90;99.90
51567;DHT22;37657;53.182;5.638;2024-02-26T02:37:40;4.00;99.90
51567;DHT22;37657;53.182;5.638;2024-02-26T02:40:07;4.10;99.90
51567;DHT22;37657;53.182;5.638;2024-02-26T02:42:33;4.30;99.90
51567;DHT22;37657;53.182;5.638;2024-02-26T02:44:59;4.60;99.90
51567;DHT22;37657;53.182;5.638;2024-02-26T02:47:24;4.50;99.90
51567;DHT22;37657;53.182;5.638;2024-02-26T02:49:50;4.50;99.90
51567;DHT22;37657;53.182;5.638;2024-02-26T02:52:15;4.60;99.90
51567;DHT22;37657;53.182;5.638;2024-02-26T02:54:41;4.50;99.90
51567;DHT22;37657;53.182;5.638;2024-02-26T02:57:08;3.90;99.90
51567;DHT22;37657;53.182;5.638;2024-02-26T02:59:34;3.80;99.90
51567;DHT22;37657;53.182;5.638;2024-02-26T03:01:59;4.40;99.90
51567;DHT22;37657;53.182;5.638;2024-02-26T03:04:25;4.30;99.90
51567;DHT22;37657;53.182;5.638;2024-02-26T03:06:50;3.70;99.90
51567;DHT22;37657;53.182;5.638;2024-02-26T03:09:16;4.20;99.90
51567;DHT22;37657;53.182;5.638;2024-02-26T03:11:42;4.50;99.90
51567;DHT22;37657;53.182;5.638;2024-02-26T03:14:07;4.40;99.90
51567;DHT22;37657;53.182;5.638;2024-02-26T03:16:34;4.20;99.90
51567;DHT22;37657;53.182;5.638;2024-02-26T03:18:59;3.90;99.90
51567;DHT22;37657;53.182;5.638;2024-02-26T03:21:25;4.40;99.90
51567;DHT22;37657;53.182;5.638;2024-02-26T03:23:51;3.80;99.90
51567;DHT22;37657;53.182;5.638;2024-02-26T03:26:17;4.50;99.90
51567;DHT22;37657;53.182;5.638;2024-02-26T03:28:42;3.80;99.90
51567;DHT22;37657;53.182;5.638;2024-02-26T03:31:08;3.90;99.90
51567;DHT22;37657;53.182;5.638;2024-02-26T03:33:34;4.20;99.90
51567;DHT22;37657;53.182;5.638;2024-02-26T03:35:59;4.30;99.90
51567;DHT22;37657;53.182;5.638;2024-02-26T03:38:25;4.50;99.90
51567;DHT22;37657;53.182;5.638;2024-02-26T03:40:51;4.50;99.90
51567;DHT22;37657;53.182;5.638;2024-02-26T03:43:17;3.80;99.90
51567;DHT22;37657;53.182;5.638;2024-02-26T03:45:43;4.20;99.90
51567;DHT22;37657;53.182;5.638;2024-02-26T03:48:08;3.70;99.90
51567;DHT22;37657;53.182;5.638;2024-02-26T03:50:34;4.10;99.90
51567;DHT22;37657;53.182;5.638;2024-02-26T03:53:00;3.70;99.90
51567;DHT22;37657;53.182;5.638;2024-02-26T03:55:25;4.50;99.90
51567;DHT22;37657;53.182;5.638;2024-02-26T03:57:52;4.50;99.90
51567;DHT22;37657;53.182;5.638;2024-02-26T04:00:18;4.30;99.90
51567;DHT22;37657;53.182;5.638;2024-02-26T04:02:43;4.30;99.90
51567;DHT22;37657;53.182;5.638;2024-02-26T04:05:10;3.70;99.90
51567;DHT22;37657;53.182;5.638;2024-02-26T04:07:36;4.50;99.90
51567;DHT22;37657;53.182;5.638;2024-02-26T04:10:02;4.40;99.90
51567;DHT22;37657;53.182;5.638;2024-02-26T04:12:30;4.20;99.90
51567;DHT22;37657;53.182;5.638;2024-02-26T04:14:56;3.90;99.90
51567;DHT22;37657;53.182;5.638;2024-02-26T04:17:21;3.90;99.90
51567;DHT22;37657;53.182;5.638;2024-02-26T04:19:47;4.70;99.90
51567;DHT22;37657;53.182;5.638;2024-02-26T04:22:13;4.00;99.90
51567;DHT22;37657;53.182;5.638;2024-02-26T04:24:38;4.80;99.90
51567;DHT22;37657;53.182;5.638;2024-02-26T04:27:04;4.90;99.90
51567;DHT22;37657;53.182;5.638;2024-02-26T04:29:30;4.90;99.90
51567;DHT22;37657;53.182;5.638;2024-02-26T04:31:55;4.70;99.90
51567;DHT22;37657;53.182;5.638;2024-02-26T04:34:21;4.30;99.90
51567;DHT22;37657;53.182;5.638;2024-02-26T04:36:46;4.30;99.90
51567;DHT22;37657;53.182;5.638;2024-02-26T04:39:13;4.20;99.90
51567;DHT22;37657;53.182;5.638;2024-02-26T04:41:39;4.50;99.90
51567;DHT22;37657;53.182;5.638;2024-02-26T04:44:05;4.50;99.90
51567;DHT22;37657;53.182;5.638;2024-02-26T04:46:31;4.90;99.90
51567;DHT22;37657;53.182;5.638;2024-02-26T04:48:56;4.90;99.90
51567;DHT22;37657;53.182;5.638;2024-02-26T04:51:22;4.60;99.90
51567;DHT22;37657;53.182;5.638;2024-02-26T04:53:47;4.40;99.90
51567;DHT22;37657;53.182;5.638;2024-02-26T04:56:13;4.40;99.90
51567;DHT22;37657;53.182;5.638;2024-02-26T04:58:38;4.80;99.90
51567;DHT22;37657;53.182;5.638;2024-02-26T05:01:05;4.40;99.90
51567;DHT22;37657;53.182;5.638;2024-02-26T05:03:30;4.50;99.90
51567;DHT22;37657;53.182;5.638;2024-02-26T05:05:56;4.60;99.90
51567;DHT22;37657;53.182;5.638;2024-02-26T05:08:23;4.60;99.90
51567;DHT22;37657;53.182;5.638;2024-02-26T05:10:49;4.40;99.90
51567;DHT22;37657;53.182;5.638;2024-02-26T05:13:14;4.40;99.90
51567;DHT22;37657;53.182;5.638;2024-02-26T05:15:41;4.70;99.90
51567;DHT22;37657;53.182;5.638;2024-02-26T05:18:07;4.90;99.90
51567;DHT22;37657;53.182;5.638;2024-02-26T05:20:33;4.30;99.90
51567;DHT22;37657;53.182;5.638;2024-02-26T05:23:01;4.70;99.90
51567;DHT22;37657;53.182;5.638;2024-02-26T05:25:27;4.50;99.90
51567;DHT22;37657;53.182;5.638;2024-02-26T05:27:52;4.70;99.90
51567;DHT22;37657;53.182;5.638;2024-02-26T05:30:18;4.30;99.90
51567;DHT22;37657;53.182;5.638;2024-02-26T05:32:43;4.90;99.90
51567;DHT22;37657;53.182;5.638;2024-02-26T05:35:09;5.00;99.90
51567;DHT22;37657;53.182;5.638;2024-02-26T05:37:35;5.40;99.90
51567;DHT22;37657;53.182;5.638;2024-02-26T05:40:00;5.20;99.90
51567;DHT22;37657;53.182;5.638;2024-02-26T05:42:26;4.40;99.90
51567;DHT22;37657;53.182;5.638;2024-02-26T05:44:51;4.80;99.90
51567;DHT22;37657;53.182;5.638;2024-02-26T05:47:17;4.40;99.90
51567;DHT22;37657;53.182;5.638;2024-02-26T05:49:43;4.30;99.90
51567;DHT22;37657;53.182;5.638;2024-02-26T05:52:09;4.50;99.90
51567;DHT22;37657;53.182;5.638;2024-02-26T05:54:34;4.60;99.90
51567;DHT22;37657;53.182;5.638;2024-02-26T05:57:00;4.30;99.90
51567;DHT22;37657;53.182;5.638;2024-02-26T05:59:26;4.30;99.90
51567;DHT22;37657;53.182;5.638;2024-02-26T06:01:52;4.50;99.90
51567;DHT22;37657;53.182;5.638;2024-02-26T06:04:17;4.60;99.90
51567;DHT22;37657;53.182;5.638;2024-02-26T06:06:44;4.60;99.90
51567;DHT22;37657;53.182;5.638;2024-02-26T06:09:10;4.60;99.90
51567;DHT22;37657;53.182;5.638;2024-02-26T06:11:37;4.50;99.90
51567;DHT22;37657;53.182;5.638;2024-02-26T06:14:02;4.70;99.90
51567;DHT22;37657;53.182;5.638;2024-02-26T06:16:28;4.70;99.90
51567;DHT22;37657;53.182;5.638;2024-02-26T06:18:53;4.50;99.90
51567;DHT22;37657;53.182;5.638;2024-02-26T06:21:19;4.40;99.90
51567;DHT22;37657;53.182;5.638;2024-02-26T06:23:45;4.60;99.90
51567;DHT22;37657;53.182;5.638;2024-02-26T06:26:10;4.80;99.90
51567;DHT22;37657;53.182;5.638;2024-02-26T06:28:36;4.80;99.90
51567;DHT22;37657;53.182;5.638;2024-02-26T06:31:02;4.60;99.90
51567;DHT22;37657;53.182;5.638;2024-02-26T06:33:28;4.50;99.90
51567;DHT22;37657;53.182;5.638;2024-02-26T06:35:53;4.90;99.90
51567;DHT22;37657;53.182;5.638;2024-02-26T06:38:19;4.60;99.90
51567;DHT22;37657;53.182;5.638;2024-02-26T06:40:45;4.70;99.90
51567;DHT22;37657;53.182;5.638;2024-02-26T06:43:11;4.90;99.90
51567;DHT22;37657;53.182;5.638;2024-02-26T06:45:36;4.60;99.90
51567;DHT22;37657;53.182;5.638;2024-02-26T06:48:02;4.70;99.90
51567;DHT22;37657;53.182;5.638;2024-02-26T06:50:27;4.90;99.90
51567;DHT22;37657;53.182;5.638;2024-02-26T06:52:53;4.90;99.90
51567;DHT22;37657;53.182;5.638;2024-02-26T06:55:19;5.10;99.90
51567;DHT22;37657;53.182;5.638;2024-02-26T06:57:44;5.00;99.90
51567;DHT22;37657;53.182;5.638;2024-02-26T07:00:11;4.90;99.90
51567;DHT22;37657;53.182;5.638;2024-02-26T07:02:40;4.50;99.90
51567;DHT22;37657;53.182;5.638;2024-02-26T07:05:06;4.80;99.90
51567;DHT22;37657;53.182;5.638;2024-02-26T07:07:32;4.80;99.90
51567;DHT22;37657;53.182;5.638;2024-02-26T07:09:58;4.50;99.90
51567;DHT22;37657;53.182;5.638;2024-02-26T07:12:23;4.70;99.90
51567;DHT22;37657;53.182;5.638;2024-02-26T07:14:49;4.50;99.90
51567;DHT22;37657;53.182;5.638;2024-02-26T07:17:15;4.40;99.90
51567;DHT22;37657;53.182;5.638;2024-02-26T07:19:42;4.70;99.90
51567;DHT22;37657;53.182;5.638;2024-02-26T07:22:08;4.50;99.90
51567;DHT22;37657;53.182;5.638;2024-02-26T07:24:33;4.40;99.90
51567;DHT22;37657;53.182;5.638;2024-02-26T07:26:59;4.70;99.90
51567;DHT22;37657;53.182;5.638;2024-02-26T07:29:25;4.70;99.90
51567;DHT22;37657;53.182;5.638;2024-02-26T07:31:50;4.60;99.90
51567;DHT22;37657;53.182;5.638;2024-02-26T07:34:16;4.80;99.90
51567;DHT22;37657;53.182;5.638;2024-02-26T07:36:42;4.70;99.90
51567;DHT22;37657;53.182;5.638;2024-02-26T07:39:08;4.80;99.90
51567;DHT22;37657;53.182;5.638;2024-02-26T07:41:34;4.90;99.90
51567;DHT22;37657;53.182;5.638;2024-02-26T07:43:59;4.60;99.90
51567;DHT22;37657;53.182;5.638;2024-02-26T07:46:25;4.80;99.90
51567;DHT22;37657;53.182;5.638;2024-02-26T07:48:50;4.80;99.90
51567;DHT22;37657;53.182;5.638;2024-02-26T07:51:16;4.90;99.90
51567;DHT22;37657;53.182;5.638;2024-02-26T07:53:42;4.80;99.90
51567;DHT22;37657;53.182;5.638;2024-02-26T07:56:09;4.70;99.90
51567;DHT22;37657;53.182;5.638;2024-02-26T07:58:35;4.90;99.90
51567;DHT22;37657;53.182;5.638;2024-02-26T08:01:00;5.00;99.90
51567;DHT22;37657;53.182;5.638;2024-02-26T08:03:26;5.10;99.90
51567;DHT22;37657;53.182;5.638;2024-02-26T08:05:52;5.10;99.90
51567;DHT22;37657;53.182;5.638;2024-02-26T08:08:17;5.00;99.90
51567;DHT22;37657;53.182;5.638;2024-02-26T08:10:43;5.10;99.90
51567;DHT22;37657;53.182;5.638;2024-02-26T08:13:09;5.10;99.90
51567;DHT22;37657;53.182;5.638;2024-02-26T08:15:37;5.10;99.90
51567;DHT22;37657;53.182;5.638;2024-02-26T08:18:03;5.20;99.90
51567;DHT22;37657;53.182;5.638;2024-02-26T08:20:30;5.20;99.90
51567;DHT22;37657;53.182;5.638;2024-02-26T08:22:56;5.20;99.90
51567;DHT22;37657;53.182;5.638;2024-02-26T08:25:22;5.30;99.90
51567;DHT22;37657;53.182;5.638;2024-02-26T08:27:47;5.20;99.90
51567;DHT22;37657;53.182;5.638;2024-02-26T08:30:14;5.60;99.90
51567;DHT22;37657;53.182;5.638;2024-02-26T08:32:42;5.20;99.90
51567;DHT22;37657;53.182;5.638;2024-02-26T08:35:08;5.40;99.90
51567;DHT22;37657;53.182;5.638;2024-02-26T08:37:34;5.50;99.90
51567;DHT22;37657;53.182;5.638;2024-02-26T08:39:59;5.50;99.90
51567;DHT22;37657;53.182;5.638;2024-02-26T08:42:25;5.40;99.90
51567;DHT22;37657;53.182;5.638;2024-02-26T08:44:50;5.40;99.90
51567;DHT22;37657;53.182;5.638;2024-02-26T08:47:16;5.60;99.90
51567;DHT22;37657;53.182;5.638;2024-02-26T08:49:45;5.60;99.90
51567;DHT22;37657;53.182;5.638;2024-02-26T08:52:11;5.60;99.90
51567;DHT22;37657;53.182;5.638;2024-02-26T08:54:37;5.60;99.90
51567;DHT22;37657;53.182;5.638;2024-02-26T08:57:03;5.70;99.90
51567;DHT22;37657;53.182;5.638;2024-02-26T08:59:29;5.60;99.90
51567;DHT22;37657;53.182;5.638;2024-02-26T09:01:54;5.60;99.90
51567;DHT22;37657;53.182;5.638;2024-02-26T09:04:20;5.70;99.90
51567;DHT22;37657;53.182;5.638;2024-02-26T09:06:46;6.00;99.90
51567;DHT22;37657;53.182;5.638;2024-02-26T09:09:12;5.70;99.90
51567;DHT22;37657;53.182;5.638;2024-02-26T09:11:38;6.20;99.90
51567;DHT22;37657;53.182;5.638;2024-02-26T09:14:03;5.90;99.90
51567;DHT22;37657;53.182;5.638;2024-02-26T09:16:30;5.90;99.90
51567;DHT22;37657;53.182;5.638;2024-02-26T09:18:56;6.40;99.90
51567;DHT22;37657;53.182;5.638;2024-02-26T09:21:22;6.00;99.90
51567;DHT22;37657;53.182;5.638;2024-02-26T09:23:52;6.60;99.90
51567;DHT22;37657;53.182;5.638;2024-02-26T09:26:17;6.00;99.90
51567;DHT22;37657;53.182;5.638;2024-02-26T09:28:44;6.00;99.90
51567;DHT22;37657;53.182;5.638;2024-02-26T09:31:09;6.00;99.90
51567;DHT22;37657;53.182;5.638;2024-02-26T09:33:35;6.10;99.90
51567;DHT22;37657;53.182;5.638;2024-02-26T09:36:01;6.20;99.90
51567;DHT22;37657;53.182;5.638;2024-02-26T09:38:27;6.80;99.90
51567;DHT22;37657;53.182;5.638;2024-02-26T09:40:53;6.30;99.90
51567;DHT22;37657;53.182;5.638;2024-02-26T09:43:22;6.30;99.90
51567;DHT22;37657;53.182;5.638;2024-02-26T09:45:53;6.30;99.90
51567;DHT22;37657;53.182;5.638;2024-02-26T09:48:19;6.50;99.90
51567;DHT22;37657;53.182;5.638;2024-02-26T09:50:45;6.50;99.90
51567;DHT22;37657;53.182;5.638;2024-02-26T09:53:12;6.40;99.90
51567;DHT22;37657;53.182;5.638;2024-02-26T09:55:39;6.50;99.90
51567;DHT22;37657;53.182;5.638;2024-02-26T09:58:05;7.00;99.90
51567;DHT22;37657;53.182;5.638;2024-02-26T10:00:32;7.10;99.90
51567;DHT22;37657;53.182;5.638;2024-02-26T10:03:05;6.60;99.90
51567;DHT22;37657;53.182;5.638;2024-02-26T10:05:32;6.60;99.90
51567;DHT22;37657;53.182;5.638;2024-02-26T10:07:59;6.60;99.90
51567;DHT22;37657;53.182;5.638;2024-02-26T10:10:28;6.70;99.90
51567;DHT22;37657;53.182;5.638;2024-02-26T10:12:54;6.80;99.90
51567;DHT22;37657;53.182;5.638;2024-02-26T10:15:20;6.80;99.90
51567;DHT22;37657;53.182;5.638;2024-02-26T10:17:46;7.10;99.90
51567;DHT22;37657;53.182;5.638;2024-02-26T10:20:13;6.80;99.90
51567;DHT22;37657;53.182;5.638;2024-02-26T10:22:46;6.80;99.90
51567;DHT22;37657;53.182;5.638;2024-02-26T10:25:11;6.80;99.90
51567;DHT22;37657;53.182;5.638;2024-02-26T10:27:37;6.80;99.90
51567;DHT22;37657;53.182;5.638;2024-02-26T10:30:20;6.80;99.90
51567;DHT22;37657;53.182;5.638;2024-02-26T10:32:47;7.00;99.90
51567;DHT22;37657;53.182;5.638;2024-02-26T10:35:13;6.70;99.90
51567;DHT22;37657;53.182;5.638;2024-02-26T10:37:40;6.70;99.90
51567;DHT22;37657;53.182;5.638;2024-02-26T10:40:13;6.90;99.90
51567;DHT22;37657;53.182;5.638;2024-02-26T10:42:39;6.70;99.90
51567;DHT22;37657;53.182;5.638;2024-02-26T10:45:06;6.80;99.90
51567;DHT22;37657;53.182;5.638;2024-02-26T10:47:31;6.80;99.90
51567;DHT22;37657;53.182;5.638;2024-02-26T10:49:59;7.10;99.90
51567;DHT22;37657;53.182;5.638;2024-02-26T10:52:27;6.80;99.90
51567;DHT22;37657;53.182;5.638;2024-02-26T10:54:56;6.90;99.90
51567;DHT22;37657;53.182;5.638;2024-02-26T10:57:24;6.90;99.90
51567;DHT22;37657;53.182;5.638;2024-02-26T10:59:52;7.40;99.90
51567;DHT22;37657;53.182;5.638;2024-02-26T11:02:19;7.00;99.90
51567;DHT22;37657;53.182;5.638;2024-02-26T11:04:46;7.00;99.90
51567;DHT22;37657;53.182;5.638;2024-02-26T11:07:16;7.00;99.90
51567;DHT22;37657;53.182;5.638;2024-02-26T11:09:44;7.10;99.90
51567;DHT22;37657;53.182;5.638;2024-02-26T11:12:14;7.10;99.90
51567;DHT22;37657;53.182;5.638;2024-02-26T11:14:44;7.10;99.90
51567;DHT22;37657;53.182;5.638;2024-02-26T11:17:11;7.10;99.90
51567;DHT22;37657;53.182;5.638;2024-02-26T11:19:38;7.40;99.90
51567;DHT22;37657;53.182;5.638;2024-02-26T11:22:04;7.30;99.90
51567;DHT22;37657;53.182;5.638;2024-02-26T11:24:30;7.20;99.90
51567;DHT22;37657;53.182;5.638;2024-02-26T11:27:00;7.10;99.90
51567;DHT22;37657;53.182;5.638;2024-02-26T11:29:50;7.10;99.90
51567;DHT22;37657;53.182;5.638;2024-02-26T11:32:17;7.10;99.90
51567;DHT22;37657;53.182;5.638;2024-02-26T11:34:44;7.10;99.90
51567;DHT22;37657;53.182;5.638;2024-02-26T11:37:11;7.10;99.90
51567;DHT22;37657;53.182;5.638;2024-02-26T11:39:39;7.10;99.90
51567;DHT22;37657;53.182;5.638;2024-02-26T11:42:06;7.20;99.90
51567;DHT22;37657;53.182;5.638;2024-02-26T11:44:32;7.20;99.90
51567;DHT22;37657;53.182;5.638;2024-02-26T11:46:58;7.60;99.90
51567;DHT22;37657;53.182;5.638;2024-02-26T11:51:54;7.20;99.90
51567;DHT22;37657;53.182;5.638;2024-02-26T11:57:39;7.30;99.90
51567;DHT22;37657;53.182;5.638;2024-02-26T12:00:13;7.30;99.90
51567;DHT22;37657;53.182;5.638;2024-02-26T12:05:21;7.20;99.90
51567;DHT22;37657;53.182;5.638;2024-02-26T12:07:55;7.20;99.90
51567;DHT22;37657;53.182;5.638;2024-02-26T12:10:31;7.30;99.90
51567;DHT22;37657;53.182;5.638;2024-02-26T12:13:14;7.40;99.90
51567;DHT22;37657;53.182;5.638;2024-02-26T12:15:41;7.40;99.90
51567;DHT22;37657;53.182;5.638;2024-02-26T12:18:08;7.30;99.90
51567;DHT22;37657;53.182;5.638;2024-02-26T12:20:38;7.30;99.90
51567;DHT22;37657;53.182;5.638;2024-02-26T12:23:05;7.30;99.90
51567;DHT22;37657;53.182;5.638;2024-02-26T12:25:31;7.20;99.90
51567;DHT22;37657;53.182;5.638;2024-02-26T12:27:58;7.70;99.90
51567;DHT22;37657;53.182;5.638;2024-02-26T12:30:25;7.40;99.90
51567;DHT22;37657;53.182;5.638;2024-02-26T12:32:53;7.00;99.90
51567;DHT22;37657;53.182;5.638;2024-02-26T12:35:23;7.00;99.90
51567;DHT22;37657;53.182;5.638;2024-02-26T12:37:49;7.00;99.90
51567;DHT22;37657;53.182;5.638;2024-02-26T12:40:17;7.30;99.90
51567;DHT22;37657;53.182;5.638;2024-02-26T12:42:43;7.50;99.90
51567;DHT22;37657;53.182;5.638;2024-02-26T12:45:10;7.00;99.90
51567;DHT22;37657;53.182;5.638;2024-02-26T12:47:43;7.10;99.90
51567;DHT22;37657;53.182;5.638;2024-02-26T12:50:10;7.10;99.90
51567;DHT22;37657;53.182;5.638;2024-02-26T12:52:42;7.10;99.90
51567;DHT22;37657;53.182;5.638;2024-02-26T12:55:08;7.70;99.90
51567;DHT22;37657;53.182;5.638;2024-02-26T12:57:37;7.20;99.90
51567;DHT22;37657;53.182;5.638;2024-02-26T13:00:04;7.10;99.90
51567;DHT22;37657;53.182;5.638;2024-02-26T13:02:32;7.10;99.90
51567;DHT22;37657;53.182;5.638;2024-02-26T13:04:59;7.00;99.90
51567;DHT22;37657;53.182;5.638;2024-02-26T13:07:27;7.00;99.90
51567;DHT22;37657;53.182;5.638;2024-02-26T13:09:53;6.80;99.90
51567;DHT22;37657;53.182;5.638;2024-02-26T13:12:19;6.70;99.90
51567;DHT22;37657;53.182;5.638;2024-02-26T13:14:44;6.80;99.90
51567;DHT22;37657;53.182;5.638;2024-02-26T13:17:10;6.70;99.90
51567;DHT22;37657;53.182;5.638;2024-02-26T13:19:35;6.70;99.90
51567;DHT22;37657;53.182;5.638;2024-02-26T13:22:07;6.80;99.90
51567;DHT22;37657;53.182;5.638;2024-02-26T13:24:34;6.70;99.90
51567;DHT22;37657;53.182;5.638;2024-02-26T13:26:59;6.80;99.90
51567;DHT22;37657;53.182;5.638;2024-02-26T13:29:26;7.10;99.90
51567;DHT22;37657;53.182;5.638;2024-02-26T13:31:59;6.50;99.90
51567;DHT22;37657;53.182;5.638;2024-02-26T13:34:25;6.40;99.90
51567;DHT22;37657;53.182;5.638;2024-02-26T13:36:52;6.40;99.90
51567;DHT22;37657;53.182;5.638;2024-02-26T13:39:25;6.90;99.90
51567;DHT22;37657;53.182;5.638;2024-02-26T13:41:51;6.30;99.90
51567;DHT22;37657;53.182;5.638;2024-02-26T13:44:21;6.30;99.90
51567;DHT22;37657;53.182;5.638;2024-02-26T13:46:47;6.30;99.90
51567;DHT22;37657;53.182;5.638;2024-02-26T13:49:13;6.70;99.90
51567;DHT22;37657;53.182;5.638;2024-02-26T13:51:39;6.40;99.90
51567;DHT22;37657;53.182;5.638;2024-02-26T13:54:05;6.20;99.90
51567;DHT22;37657;53.182;5.638;2024-02-26T13:56:31;6.20;99.90
51567;DHT22;37657;53.182;5.638;2024-02-26T13:58:57;6.20;99.90
51567;DHT22;37657;53.182;5.638;2024-02-26T14:01:24;6.50;99.90
51567;DHT22;37657;53.182;5.638;2024-02-26T14:03:49;6.10;99.90
51567;DHT22;37657;53.182;5.638;2024-02-26T14:06:15;6.10;99.90
51567;DHT22;37657;53.182;5.638;2024-02-26T14:08:41;6.10;99.90
51567;DHT22;37657;53.182;5.638;2024-02-26T14:11:06;6.00;99.90
51567;DHT22;37657;53.182;5.638;2024-02-26T14:13:32;6.10;99.90
51567;DHT22;37657;53.182;5.638;2024-02-26T14:15:58;6.00;99.90
51567;DHT22;37657;53.182;5.638;2024-02-26T14:18:23;6.10;99.90
51567;DHT22;37657;53.182;5.638;2024-02-26T14:20:49;6.20;99.90
51567;DHT22;37657;53.182;5.638;2024-02-26T14:23:15;6.20;99.90
51567;DHT22;37657;53.182;5.638;2024-02-26T14:25:41;6.30;99.90
51567;DHT22;37657;53.182;5.638;2024-02-26T14:28:06;6.30;99.90
51567;DHT22;37657;53.182;5.638;2024-02-26T14:30:32;6.30;99.90
51567;DHT22;37657;53.182;5.638;2024-02-26T14:32:58;6.30;99.90
51567;DHT22;37657;53.182;5.638;2024-02-26T14:35:23;6.40;99.90
51567;DHT22;37657;53.182;5.638;2024-02-26T14:37:50;6.40;99.90
51567;DHT22;37657;53.182;5.638;2024-02-26T14:40:17;6.40;99.90
51567;DHT22;37657;53.182;5.638;2024-02-26T14:42:44;6.40;99.90
51567;DHT22;37657;53.182;5.638;2024-02-26T14:45:10;6.50;99.90
51567;DHT22;37657;53.182;5.638;2024-02-26T14:47:36;6.50;99.90
51567;DHT22;37657;53.182;5.638;2024-02-26T14:50:03;6.50;99.90
51567;DHT22;37657;53.182;5.638;2024-02-26T14:52:29;6.50;99.90
51567;DHT22;37657;53.182;5.638;2024-02-26T14:54:54;6.60;99.90
51567;DHT22;37657;53.182;5.638;2024-02-26T14:57:20;6.50;99.90
51567;DHT22;37657;53.182;5.638;2024-02-26T14:59:45;6.50;99.90
51567;DHT22;37657;53.182;5.638;2024-02-26T15:02:11;6.50;99.90
51567;DHT22;37657;53.182;5.638;2024-02-26T15:04:37;6.60;99.90
51567;DHT22;37657;53.182;5.638;2024-02-26T15:07:03;6.60;99.90
51567;DHT22;37657;53.182;5.638;2024-02-26T15:09:29;6.50;99.90
51567;DHT22;37657;53.182;5.638;2024-02-26T15:11:55;7.00;99.90
51567;DHT22;37657;53.182;5.638;2024-02-26T15:14:23;6.50;99.90
51567;DHT22;37657;53.182;5.638;2024-02-26T15:16:48;6.80;99.90
51567;DHT22;37657;53.182;5.638;2024-02-26T15:19:14;6.50;99.90
51567;DHT22;37657;53.182;5.638;2024-02-26T15:21:44;6.40;99.90
51567;DHT22;37657;53.182;5.638;2024-02-26T15:24:10;6.40;99.90
51567;DHT22;37657;53.182;5.638;2024-02-26T15:26:37;6.40;99.90
51567;DHT22;37657;53.182;5.638;2024-02-26T15:29:02;6.80;99.90
51567;DHT22;37657;53.182;5.638;2024-02-26T15:31:28;6.40;99.90
51567;DHT22;37657;53.182;5.638;2024-02-26T15:33:54;6.30;99.90
51567;DHT22;37657;53.182;5.638;2024-02-26T15:36:19;6.30;99.90
51567;DHT22;37657;53.182;5.638;2024-02-26T15:38:45;6.70;99.90
51567;DHT22;37657;53.182;5.638;2024-02-26T15:41:11;6.90;99.90
51567;DHT22;37657;53.182;5.638;2024-02-26T15:43:38;6.40;99.90
51567;DHT22;37657;53.182;5.638;2024-02-26T15:46:03;6.30;99.90
51567;DHT22;37657;53.182;5.638;2024-02-26T15:48:30;6.20;99.90